sensor_id;sensor_type;location;lat;lon;timestamp;pressure;altitude;pressure_sealevel;temperature;humidity
75775;BME280;64505;51.458;7.556;2022-11-20T00:02:01;99414.47;;;-3.34;84.98
75775;BME280;64505;51.458;7.556;2022-11-20T00:04:02;99403.03;;;-3.31;84.15
75775;BME280;64505;51.458;7.556;2022-11-20T00:06:06;99400.41;;;-3.22;84.77
75775;BME280;64505;51.458;7.556;2022-11-20T00:08:08;99397.56;;;-3.19;84.60
75775;BME280;64505;51.458;7.556;2022-11-20T00:10:09;99396.56;;;-3.18;84.12
75775;BME280;64505;51.458;7.556;2022-11-20T00:12:10;99403.09;;;-3.14;84.97
75775;BME280;64505;51.458;7.556;2022-11-20T00:14:12;99402.81;;;-3.11;85.08
75775;BME280;64505;51.458;7.556;2022-11-20T00:16:15;99403.72;;;-3.02;84.94
75775;BME280;64505;51.458;7.556;2022-11-20T00:18:17;99407.22;;;-2.93;84.38
75775;BME280;64505;51.458;7.556;2022-11-20T00:20:18;99403.09;;;-2.86;84.48
75775;BME280;64505;51.458;7.556;2022-11-20T00:22:20;99405.53;;;-2.85;85.73
75775;BME280;64505;51.458;7.556;2022-11-20T00:24:21;99402.53;;;-2.80;83.91
75775;BME280;64505;51.458;7.556;2022-11-20T00:26:24;99403.56;;;-2.73;84.13
75775;BME280;64505;51.458;7.556;2022-11-20T00:28:26;99403.94;;;-2.68;83.66
75775;BME280;64505;51.458;7.556;2022-11-20T00:30:27;99405.94;;;-2.62;83.74
75775;BME280;64505;51.458;7.556;2022-11-20T00:32:29;99409.88;;;-2.58;84.73
75775;BME280;64505;51.458;7.556;2022-11-20T00:34:31;99397.44;;;-2.55;85.16
75775;BME280;64505;51.458;7.556;2022-11-20T00:36:33;99404.78;;;-2.50;84.53
75775;BME280;64505;51.458;7.556;2022-11-20T00:38:35;99400.94;;;-2.46;84.22
75775;BME280;64505;51.458;7.556;2022-11-20T00:40:37;99404.06;;;-2.42;84.35
75775;BME280;64505;51.458;7.556;2022-11-20T00:42:38;99400.19;;;-2.38;83.83
75775;BME280;64505;51.458;7.556;2022-11-20T00:44:39;99406.38;;;-2.31;84.31
75775;BME280;64505;51.458;7.556;2022-11-20T00:46:41;99417.28;;;-2.28;84.89
75775;BME280;64505;51.458;7.556;2022-11-20T00:48:42;99403.59;;;-2.20;85.33
75775;BME280;64505;51.458;7.556;2022-11-20T00:50:44;99412.16;;;-2.20;84.31
75775;BME280;64505;51.458;7.556;2022-11-20T00:52:45;99404.91;;;-2.16;84.09
75775;BME280;64505;51.458;7.556;2022-11-20T00:54:47;99405.44;;;-2.13;84.73
75775;BME280;64505;51.458;7.556;2022-11-20T00:56:48;99404.16;;;-2.09;84.63
75775;BME280;64505;51.458;7.556;2022-11-20T00:58:49;99405.00;;;-2.08;85.53
75775;BME280;64505;51.458;7.556;2022-11-20T01:00:51;99392.25;;;-2.02;85.24
75775;BME280;64505;51.458;7.556;2022-11-20T01:02:57;99397.28;;;-2.00;85.08
75775;BME280;64505;51.458;7.556;2022-11-20T01:04:59;99396.84;;;-1.95;84.95
75775;BME280;64505;51.458;7.556;2022-11-20T01:07:00;99404.31;;;-1.92;84.29
75775;BME280;64505;51.458;7.556;2022-11-20T01:09:11;99411.78;;;-1.89;84.30
75775;BME280;64505;51.458;7.556;2022-11-20T01:11:21;99407.25;;;-1.87;85.29
75775;BME280;64505;51.458;7.556;2022-11-20T01:13:23;99403.41;;;-1.83;85.08
75775;BME280;64505;51.458;7.556;2022-11-20T01:15:42;99394.22;;;-1.78;84.93
75775;BME280;64505;51.458;7.556;2022-11-20T01:17:44;99395.03;;;-1.77;84.07
75775;BME280;64505;51.458;7.556;2022-11-20T01:19:49;99384.34;;;-1.74;84.35
75775;BME280;64505;51.458;7.556;2022-11-20T01:21:53;99387.47;;;-1.71;85.25
75775;BME280;64505;51.458;7.556;2022-11-20T01:23:54;99379.69;;;-1.71;85.24
75775;BME280;64505;51.458;7.556;2022-11-20T01:25:56;99387.66;;;-1.64;84.74
75775;BME280;64505;51.458;7.556;2022-11-20T01:27:57;99380.53;;;-1.62;85.24
75775;BME280;64505;51.458;7.556;2022-11-20T01:29:58;99380.22;;;-1.59;85.63
75775;BME280;64505;51.458;7.556;2022-11-20T01:32:01;99387.72;;;-1.56;84.73
75775;BME280;64505;51.458;7.556;2022-11-20T01:34:05;99384.63;;;-1.52;84.56
75775;BME280;64505;51.458;7.556;2022-11-20T01:36:08;99384.34;;;-1.48;85.14
75775;BME280;64505;51.458;7.556;2022-11-20T01:38:10;99384.03;;;-1.45;85.39
75775;BME280;64505;51.458;7.556;2022-11-20T01:40:11;99384.38;;;-1.40;84.73
75775;BME280;64505;51.458;7.556;2022-11-20T01:42:13;99391.84;;;-1.37;84.73
75775;BME280;64505;51.458;7.556;2022-11-20T01:44:49;99390.75;;;-1.35;85.08
75775;BME280;64505;51.458;7.556;2022-11-20T01:47:00;99382.66;;;-1.32;84.97
75775;BME280;64505;51.458;7.556;2022-11-20T01:49:11;99380.56;;;-1.28;84.76
75775;BME280;64505;51.458;7.556;2022-11-20T01:51:38;99377.50;;;-1.24;84.68
75775;BME280;64505;51.458;7.556;2022-11-20T01:53:43;99367.94;;;-1.23;84.76
75775;BME280;64505;51.458;7.556;2022-11-20T01:55:50;99365.84;;;-1.20;84.33
75775;BME280;64505;51.458;7.556;2022-11-20T01:57:52;99362.28;;;-1.19;84.38
75775;BME280;64505;51.458;7.556;2022-11-20T01:59:58;99360.34;;;-1.17;84.04
75775;BME280;64505;51.458;7.556;2022-11-20T02:02:06;99359.53;;;-1.17;84.64
75775;BME280;64505;51.458;7.556;2022-11-20T02:04:08;99355.81;;;-1.15;84.27
75775;BME280;64505;51.458;7.556;2022-11-20T02:06:49;99357.75;;;-1.17;85.06
75775;BME280;64505;51.458;7.556;2022-11-20T02:08:51;99348.69;;;-1.13;84.39
75775;BME280;64505;51.458;7.556;2022-11-20T02:10:53;99340.59;;;-1.10;83.47
75775;BME280;64505;51.458;7.556;2022-11-20T02:12:55;99342.22;;;-1.09;84.42
75775;BME280;64505;51.458;7.556;2022-11-20T02:15:16;99349.19;;;-1.09;84.50
75775;BME280;64505;51.458;7.556;2022-11-20T02:17:17;99341.91;;;-1.06;83.47
75775;BME280;64505;51.458;7.556;2022-11-20T02:19:27;99333.44;;;-1.08;83.73
75775;BME280;64505;51.458;7.556;2022-11-20T02:21:47;99340.41;;;-1.08;83.67
75775;BME280;64505;51.458;7.556;2022-11-20T02:26:00;99342.88;;;-1.07;83.54
75775;BME280;64505;51.458;7.556;2022-11-20T02:28:04;99351.97;;;-1.03;84.03
75775;BME280;64505;51.458;7.556;2022-11-20T02:30:06;99357.28;;;-1.04;83.91
75775;BME280;64505;51.458;7.556;2022-11-20T02:32:19;99353.28;;;-0.98;84.21
75775;BME280;64505;51.458;7.556;2022-11-20T02:34:21;99353.91;;;-0.96;83.60
75775;BME280;64505;51.458;7.556;2022-11-20T02:36:24;99344.50;;;-0.98;83.68
75775;BME280;64505;51.458;7.556;2022-11-20T02:38:27;99351.00;;;-0.93;83.69
75775;BME280;64505;51.458;7.556;2022-11-20T02:40:29;99344.22;;;-0.94;83.15
75775;BME280;64505;51.458;7.556;2022-11-20T02:42:30;99346.16;;;-0.88;83.40
75775;BME280;64505;51.458;7.556;2022-11-20T02:44:32;99345.19;;;-0.87;84.00
75775;BME280;64505;51.458;7.556;2022-11-20T02:49:25;99342.41;;;-0.94;84.48
75775;BME280;64505;51.458;7.556;2022-11-20T02:51:26;99340.47;;;-0.92;84.11
75775;BME280;64505;51.458;7.556;2022-11-20T02:53:28;99340.00;;;-0.87;84.02
75775;BME280;64505;51.458;7.556;2022-11-20T02:55:30;99330.13;;;-0.84;84.13
75775;BME280;64505;51.458;7.556;2022-11-20T02:57:31;99341.31;;;-0.83;84.46
75775;BME280;64505;51.458;7.556;2022-11-20T02:59:32;99339.00;;;-0.86;85.01
75775;BME280;64505;51.458;7.556;2022-11-20T03:01:34;99338.09;;;-0.77;84.37
75775;BME280;64505;51.458;7.556;2022-11-20T03:03:36;99327.69;;;-0.77;84.00
75775;BME280;64505;51.458;7.556;2022-11-20T03:05:37;99323.81;;;-0.73;84.12
75775;BME280;64505;51.458;7.556;2022-11-20T03:07:38;99317.47;;;-0.71;85.25
75775;BME280;64505;51.458;7.556;2022-11-20T03:09:40;99317.34;;;-0.69;85.27
75775;BME280;64505;51.458;7.556;2022-11-20T03:11:41;99323.31;;;-0.69;84.50
75775;BME280;64505;51.458;7.556;2022-11-20T03:13:43;99323.66;;;-0.64;84.22
75775;BME280;64505;51.458;7.556;2022-11-20T03:15:44;99324.00;;;-0.59;84.15
75775;BME280;64505;51.458;7.556;2022-11-20T03:17:45;99326.09;;;-0.54;84.03
75775;BME280;64505;51.458;7.556;2022-11-20T03:19:47;99318.28;;;-0.54;84.56
75775;BME280;64505;51.458;7.556;2022-11-20T03:21:48;99316.38;;;-0.52;84.52
75775;BME280;64505;51.458;7.556;2022-11-20T03:23:50;99323.00;;;-0.50;84.98
75775;BME280;64505;51.458;7.556;2022-11-20T03:25:51;99318.97;;;-0.44;84.26
75775;BME280;64505;51.458;7.556;2022-11-20T03:27:53;99309.41;;;-0.43;84.50
75775;BME280;64505;51.458;7.556;2022-11-20T03:29:55;99309.88;;;-0.32;86.12
75775;BME280;64505;51.458;7.556;2022-11-20T03:31:56;99309.72;;;-0.30;86.10
75775;BME280;64505;51.458;7.556;2022-11-20T03:33:59;99305.34;;;-0.30;85.69
75775;BME280;64505;51.458;7.556;2022-11-20T03:36:05;99299.63;;;-0.25;85.82
75775;BME280;64505;51.458;7.556;2022-11-20T03:38:07;99300.44;;;-0.25;85.64
75775;BME280;64505;51.458;7.556;2022-11-20T03:40:08;99288.25;;;-0.24;85.96
75775;BME280;64505;51.458;7.556;2022-11-20T03:42:10;99291.69;;;-0.24;85.56
75775;BME280;64505;51.458;7.556;2022-11-20T03:44:30;99293.78;;;-0.19;84.54
75775;BME280;64505;51.458;7.556;2022-11-20T03:46:32;99295.44;;;-0.18;85.58
75775;BME280;64505;51.458;7.556;2022-11-20T03:48:33;99283.88;;;-0.16;85.49
75775;BME280;64505;51.458;7.556;2022-11-20T03:50:35;99292.84;;;-0.18;86.03
75775;BME280;64505;51.458;7.556;2022-11-20T03:52:36;99289.22;;;-0.17;85.24
75775;BME280;64505;51.458;7.556;2022-11-20T03:54:37;99290.72;;;-0.15;84.47
75775;BME280;64505;51.458;7.556;2022-11-20T03:56:39;99294.28;;;-0.16;84.63
75775;BME280;64505;51.458;7.556;2022-11-20T04:00:48;99293.94;;;-0.21;84.30
75775;BME280;64505;51.458;7.556;2022-11-20T04:02:49;99287.78;;;-0.20;84.89
75775;BME280;64505;51.458;7.556;2022-11-20T04:04:50;99290.88;;;-0.16;84.54
75775;BME280;64505;51.458;7.556;2022-11-20T04:06:52;99289.91;;;-0.23;85.63
75775;BME280;64505;51.458;7.556;2022-11-20T04:08:57;99292.84;;;-0.18;85.23
75775;BME280;64505;51.458;7.556;2022-11-20T04:11:32;99295.44;;;-0.18;84.70
75775;BME280;64505;51.458;7.556;2022-11-20T04:13:34;99292.50;;;-0.15;84.04
75775;BME280;64505;51.458;7.556;2022-11-20T04:15:35;99292.97;;;-0.20;83.82
75775;BME280;64505;51.458;7.556;2022-11-20T04:17:38;99289.41;;;-0.19;84.80
75775;BME280;64505;51.458;7.556;2022-11-20T04:19:40;99294.63;;;-0.19;83.98
75775;BME280;64505;51.458;7.556;2022-11-20T04:21:43;99291.69;;;-0.16;84.14
75775;BME280;64505;51.458;7.556;2022-11-20T04:23:44;99292.66;;;-0.17;84.65
75775;BME280;64505;51.458;7.556;2022-11-20T04:25:46;99288.25;;;-0.16;84.34
75775;BME280;64505;51.458;7.556;2022-11-20T04:27:47;99289.91;;;-0.15;84.23
75775;BME280;64505;51.458;7.556;2022-11-20T04:29:48;99297.84;;;-0.17;84.73
75775;BME280;64505;51.458;7.556;2022-11-20T04:31:50;99286.16;;;-0.13;84.65
75775;BME280;64505;51.458;7.556;2022-11-20T04:33:51;99289.22;;;-0.09;84.12
75775;BME280;64505;51.458;7.556;2022-11-20T04:35:53;99288.59;;;-0.11;84.33
75775;BME280;64505;51.458;7.556;2022-11-20T04:37:54;99279.00;;;-0.11;84.37
75775;BME280;64505;51.458;7.556;2022-11-20T04:39:56;99291.97;;;-0.11;84.70
75775;BME280;64505;51.458;7.556;2022-11-20T04:41:57;99283.06;;;-0.08;84.08
75775;BME280;64505;51.458;7.556;2022-11-20T04:44:17;99291.50;;;-0.06;84.37
75775;BME280;64505;51.458;7.556;2022-11-20T04:46:20;99284.34;;;-0.04;84.48
75775;BME280;64505;51.458;7.556;2022-11-20T04:48:21;99281.44;;;-0.01;84.05
75775;BME280;64505;51.458;7.556;2022-11-20T04:50:23;99278.66;;;0.00;84.39
75775;BME280;64505;51.458;7.556;2022-11-20T04:52:24;99284.84;;;-0.01;84.74
75775;BME280;64505;51.458;7.556;2022-11-20T04:54:26;99290.84;;;0.00;84.40
75775;BME280;64505;51.458;7.556;2022-11-20T04:56:27;99286.28;;;0.02;84.55
75775;BME280;64505;51.458;7.556;2022-11-20T04:58:28;99288.88;;;0.02;84.44
75775;BME280;64505;51.458;7.556;2022-11-20T05:00:30;99292.63;;;-0.01;84.23
75775;BME280;64505;51.458;7.556;2022-11-20T05:02:31;99290.53;;;0.03;83.75
75775;BME280;64505;51.458;7.556;2022-11-20T05:04:33;99287.09;;;0.03;84.10
75775;BME280;64505;51.458;7.556;2022-11-20T05:06:34;99292.13;;;0.04;84.05
75775;BME280;64505;51.458;7.556;2022-11-20T05:08:36;99286.13;;;0.04;84.45
75775;BME280;64505;51.458;7.556;2022-11-20T05:10:37;99289.84;;;0.01;84.24
75775;BME280;64505;51.458;7.556;2022-11-20T05:12:39;99291.63;;;0.00;84.65
75775;BME280;64505;51.458;7.556;2022-11-20T05:14:40;99297.31;;;0.04;83.85
75775;BME280;64505;51.458;7.556;2022-11-20T05:16:41;99298.94;;;0.05;83.95
75775;BME280;64505;51.458;7.556;2022-11-20T05:18:43;99303.84;;;0.00;84.55
75775;BME280;64505;51.458;7.556;2022-11-20T05:20:45;99291.50;;;0.02;84.23
75775;BME280;64505;51.458;7.556;2022-11-20T05:22:46;99300.72;;;0.05;83.79
75775;BME280;64505;51.458;7.556;2022-11-20T05:24:47;99289.38;;;0.06;84.46
75775;BME280;64505;51.458;7.556;2022-11-20T05:26:49;99287.59;;;0.06;84.05
75775;BME280;64505;51.458;7.556;2022-11-20T05:28:51;99291.50;;;0.02;84.17
75775;BME280;64505;51.458;7.556;2022-11-20T05:30:52;99292.47;;;0.01;84.10
75775;BME280;64505;51.458;7.556;2022-11-20T05:32:54;99290.53;;;0.03;83.79
75775;BME280;64505;51.458;7.556;2022-11-20T05:34:55;99289.84;;;0.01;83.78
75775;BME280;64505;51.458;7.556;2022-11-20T05:36:57;99281.09;;;0.02;83.67
75775;BME280;64505;51.458;7.556;2022-11-20T05:38:58;99276.38;;;-0.03;84.36
75775;BME280;64505;51.458;7.556;2022-11-20T05:41:09;99277.88;;;-0.08;84.30
75775;BME280;64505;51.458;7.556;2022-11-20T05:43:11;99281.78;;;-0.12;84.25
75775;BME280;64505;51.458;7.556;2022-11-20T05:45:15;99275.75;;;-0.13;84.36
75775;BME280;64505;51.458;7.556;2022-11-20T05:47:16;99283.56;;;-0.13;83.54
75775;BME280;64505;51.458;7.556;2022-11-20T05:49:18;99280.47;;;-0.16;83.96
75775;BME280;64505;51.458;7.556;2022-11-20T05:51:19;99279.66;;;-0.17;84.48
75775;BME280;64505;51.458;7.556;2022-11-20T05:53:21;99286.63;;;-0.17;84.34
75775;BME280;64505;51.458;7.556;2022-11-20T05:55:22;99277.53;;;-0.21;84.43
75775;BME280;64505;51.458;7.556;2022-11-20T05:57:23;99274.16;;;-0.22;84.54
75775;BME280;64505;51.458;7.556;2022-11-20T05:59:25;99273.81;;;-0.27;84.56
75775;BME280;64505;51.458;7.556;2022-11-20T06:01:26;99281.28;;;-0.32;84.43
75775;BME280;64505;51.458;7.556;2022-11-20T06:03:28;99289.75;;;-0.38;85.16
75775;BME280;64505;51.458;7.556;2022-11-20T06:05:29;99285.03;;;-0.42;84.64
75775;BME280;64505;51.458;7.556;2022-11-20T06:07:31;99287.97;;;-0.45;84.60
75775;BME280;64505;51.458;7.556;2022-11-20T06:09:33;99282.44;;;-0.51;85.26
75775;BME280;64505;51.458;7.556;2022-11-20T06:11:35;99280.50;;;-0.48;84.64
75775;BME280;64505;51.458;7.556;2022-11-20T06:13:36;99285.69;;;-0.48;85.07
75775;BME280;64505;51.458;7.556;2022-11-20T06:15:48;99286.16;;;-0.53;85.22
75775;BME280;64505;51.458;7.556;2022-11-20T06:17:53;99281.47;;;-0.50;85.05
75775;BME280;64505;51.458;7.556;2022-11-20T06:19:55;99284.06;;;-0.58;84.93
75775;BME280;64505;51.458;7.556;2022-11-20T06:21:56;99280.81;;;-0.68;85.39
75775;BME280;64505;51.458;7.556;2022-11-20T06:23:58;99282.94;;;-0.63;85.30
75775;BME280;64505;51.458;7.556;2022-11-20T06:26:07;99277.09;;;-0.65;85.85
75775;BME280;64505;51.458;7.556;2022-11-20T06:28:09;99281.63;;;-0.67;84.95
75775;BME280;64505;51.458;7.556;2022-11-20T06:30:11;99286.31;;;-0.71;84.90
75775;BME280;64505;51.458;7.556;2022-11-20T06:32:13;99288.94;;;-0.63;85.62
75775;BME280;64505;51.458;7.556;2022-11-20T06:34:14;99284.56;;;-0.62;84.86
75775;BME280;64505;51.458;7.556;2022-11-20T06:36:18;99284.22;;;-0.67;85.03
75775;BME280;64505;51.458;7.556;2022-11-20T06:38:19;99283.59;;;-0.69;85.35
75775;BME280;64505;51.458;7.556;2022-11-20T06:40:21;99286.66;;;-0.74;84.75
75775;BME280;64505;51.458;7.556;2022-11-20T06:42:22;99289.41;;;-0.75;84.89
75775;BME280;64505;51.458;7.556;2022-11-20T06:44:24;99290.06;;;-0.81;85.30
75775;BME280;64505;51.458;7.556;2022-11-20T06:46:25;99291.00;;;-0.82;85.14
75775;BME280;64505;51.458;7.556;2022-11-20T06:48:27;99290.69;;;-0.87;84.67
75775;BME280;64505;51.458;7.556;2022-11-20T06:50:29;99296.84;;;-0.88;85.37
75775;BME280;64505;51.458;7.556;2022-11-20T06:52:30;99302.38;;;-0.91;85.17
75775;BME280;64505;51.458;7.556;2022-11-20T06:54:32;99293.91;;;-0.93;84.68
75775;BME280;64505;51.458;7.556;2022-11-20T06:56:33;99293.09;;;-0.94;84.80
75775;BME280;64505;51.458;7.556;2022-11-20T06:58:36;99288.22;;;-0.97;84.79
75775;BME280;64505;51.458;7.556;2022-11-20T07:00:38;99296.66;;;-1.03;85.04
75775;BME280;64505;51.458;7.556;2022-11-20T07:02:39;99302.16;;;-1.06;85.06
75775;BME280;64505;51.458;7.556;2022-11-20T07:04:40;99291.44;;;-1.11;84.50
75775;BME280;64505;51.458;7.556;2022-11-20T07:06:42;99296.00;;;-1.13;84.38
75775;BME280;64505;51.458;7.556;2022-11-20T07:08:43;99300.69;;;-1.17;85.84
75775;BME280;64505;51.458;7.556;2022-11-20T07:10:45;99294.69;;;-1.17;85.51
75775;BME280;64505;51.458;7.556;2022-11-20T07:12:50;99297.75;;;-1.22;84.80
75775;BME280;64505;51.458;7.556;2022-11-20T07:14:52;99300.50;;;-1.23;85.20
75775;BME280;64505;51.458;7.556;2022-11-20T07:16:53;99301.47;;;-1.24;84.20
75775;BME280;64505;51.458;7.556;2022-11-20T07:18:54;99305.03;;;-1.25;84.05
75775;BME280;64505;51.458;7.556;2022-11-20T07:21:00;99305.97;;;-1.26;85.10
75775;BME280;64505;51.458;7.556;2022-11-20T07:23:02;99309.56;;;-1.27;85.03
75775;BME280;64505;51.458;7.556;2022-11-20T07:25:03;99311.34;;;-1.28;84.36
75775;BME280;64505;51.458;7.556;2022-11-20T07:27:05;99310.38;;;-1.27;84.35
75775;BME280;64505;51.458;7.556;2022-11-20T07:29:06;99316.53;;;-1.28;84.69
75775;BME280;64505;51.458;7.556;2022-11-20T07:31:12;99322.22;;;-1.24;84.58
75775;BME280;64505;51.458;7.556;2022-11-20T07:33:20;99323.84;;;-1.23;84.19
75775;BME280;64505;51.458;7.556;2022-11-20T07:35:22;99321.91;;;-1.21;84.28
75775;BME280;64505;51.458;7.556;2022-11-20T07:37:23;99319.31;;;-1.21;84.78
75775;BME280;64505;51.458;7.556;2022-11-20T07:39:25;99321.75;;;-1.20;84.35
75775;BME280;64505;51.458;7.556;2022-11-20T07:41:26;99320.44;;;-1.16;84.89
75775;BME280;64505;51.458;7.556;2022-11-20T07:43:29;99329.06;;;-1.07;85.73
75775;BME280;64505;51.458;7.556;2022-11-20T07:45:30;99326.34;;;-1.06;84.83
75775;BME280;64505;51.458;7.556;2022-11-20T07:47:36;99324.88;;;-1.00;84.61
75775;BME280;64505;51.458;7.556;2022-11-20T07:49:37;99323.59;;;-0.96;85.09
75775;BME280;64505;51.458;7.556;2022-11-20T07:51:39;99319.72;;;-0.92;85.23
75775;BME280;64505;51.458;7.556;2022-11-20T07:53:40;99326.84;;;-0.86;84.63
75775;BME280;64505;51.458;7.556;2022-11-20T07:55:42;99328.97;;;-0.81;84.12
75775;BME280;64505;51.458;7.556;2022-11-20T07:57:43;99325.25;;;-0.79;84.13
75775;BME280;64505;51.458;7.556;2022-11-20T07:59:44;99326.88;;;-0.78;84.90
75775;BME280;64505;51.458;7.556;2022-11-20T08:01:47;99329.81;;;-0.65;85.51
75775;BME280;64505;51.458;7.556;2022-11-20T08:03:48;99321.22;;;-0.57;85.37
75775;BME280;64505;51.458;7.556;2022-11-20T08:05:50;99316.53;;;-0.62;84.93
75775;BME280;64505;51.458;7.556;2022-11-20T08:07:51;99311.50;;;-0.63;85.28
75775;BME280;64505;51.458;7.556;2022-11-20T08:09:52;99312.94;;;-0.61;84.74
75775;BME280;64505;51.458;7.556;2022-11-20T08:11:54;99316.34;;;-0.60;85.64
75775;BME280;64505;51.458;7.556;2022-11-20T08:14:14;99321.72;;;-0.54;85.76
75775;BME280;64505;51.458;7.556;2022-11-20T08:16:16;99327.72;;;-0.53;85.57
75775;BME280;64505;51.458;7.556;2022-11-20T08:18:17;99320.75;;;-0.53;85.79
75775;BME280;64505;51.458;7.556;2022-11-20T08:20:35;99324.97;;;-0.52;85.57
75775;BME280;64505;51.458;7.556;2022-11-20T08:22:36;99318.16;;;-0.53;85.57
75775;BME280;64505;51.458;7.556;2022-11-20T08:24:38;99319.94;;;-0.53;85.84
75775;BME280;64505;51.458;7.556;2022-11-20T08:26:40;99318.50;;;-0.47;85.40
75775;BME280;64505;51.458;7.556;2022-11-20T08:28:42;99315.06;;;-0.48;85.50
75775;BME280;64505;51.458;7.556;2022-11-20T08:30:43;99310.19;;;-0.43;85.46
75775;BME280;64505;51.458;7.556;2022-11-20T08:32:45;99308.59;;;-0.44;84.75
75775;BME280;64505;51.458;7.556;2022-11-20T08:34:46;99315.72;;;-0.38;84.72
75775;BME280;64505;51.458;7.556;2022-11-20T08:36:48;99314.72;;;-0.29;84.86
75775;BME280;64505;51.458;7.556;2022-11-20T08:38:51;99311.66;;;-0.24;84.91
75775;BME280;64505;51.458;7.556;2022-11-20T08:40:59;99312.94;;;-0.20;85.10
75775;BME280;64505;51.458;7.556;2022-11-20T08:43:19;99310.34;;;-0.12;85.19
75775;BME280;64505;51.458;7.556;2022-11-20T08:45:20;99306.13;;;-0.13;84.58
75775;BME280;64505;51.458;7.556;2022-11-20T08:47:21;99312.47;;;-0.08;84.38
75775;BME280;64505;51.458;7.556;2022-11-20T08:49:23;99311.13;;;-0.04;84.06
75775;BME280;64505;51.458;7.556;2022-11-20T08:51:25;99306.28;;;0.02;84.02
75775;BME280;64505;51.458;7.556;2022-11-20T08:53:27;99305.78;;;0.06;84.49
75775;BME280;64505;51.458;7.556;2022-11-20T08:55:28;99299.28;;;0.10;84.45
75775;BME280;64505;51.458;7.556;2022-11-20T08:57:34;99293.56;;;0.15;84.48
75775;BME280;64505;51.458;7.556;2022-11-20T08:59:35;99303.16;;;0.14;84.85
75775;BME280;64505;51.458;7.556;2022-11-20T09:01:57;99299.41;;;0.17;84.90
75775;BME280;64505;51.458;7.556;2022-11-20T09:03:59;99294.69;;;0.20;84.01
75775;BME280;64505;51.458;7.556;2022-11-20T09:06:03;99302.16;;;0.23;85.09
75775;BME280;64505;51.458;7.556;2022-11-20T09:08:05;99307.50;;;0.30;84.57
75775;BME280;64505;51.458;7.556;2022-11-20T09:10:07;99303.44;;;0.35;84.25
75775;BME280;64505;51.458;7.556;2022-11-20T09:12:24;99307.31;;;0.39;83.93
75775;BME280;64505;51.458;7.556;2022-11-20T09:14:25;99298.50;;;0.48;83.99
75775;BME280;64505;51.458;7.556;2022-11-20T09:16:30;99300.91;;;0.58;83.72
75775;BME280;64505;51.458;7.556;2022-11-20T09:18:32;99309.69;;;0.57;83.01
75775;BME280;64505;51.458;7.556;2022-11-20T09:20:33;99310.19;;;0.61;82.88
75775;BME280;64505;51.458;7.556;2022-11-20T09:22:35;99308.19;;;0.63;83.49
75775;BME280;64505;51.458;7.556;2022-11-20T09:24:40;99308.53;;;0.68;83.50
75775;BME280;64505;51.458;7.556;2022-11-20T09:26:43;99314.19;;;0.71;83.68
75775;BME280;64505;51.458;7.556;2022-11-20T09:28:44;99304.41;;;0.73;83.16
75775;BME280;64505;51.458;7.556;2022-11-20T09:30:46;99309.94;;;0.78;83.76
75775;BME280;64505;51.458;7.556;2022-11-20T09:32:47;99298.38;;;0.81;83.39
75775;BME280;64505;51.458;7.556;2022-11-20T09:34:48;99296.88;;;0.86;82.78
75775;BME280;64505;51.458;7.556;2022-11-20T09:36:50;99289.34;;;0.91;82.89
75775;BME280;64505;51.458;7.556;2022-11-20T09:38:52;99291.97;;;0.91;83.75
75775;BME280;64505;51.458;7.556;2022-11-20T09:40:58;99292.44;;;0.95;83.53
75775;BME280;64505;51.458;7.556;2022-11-20T09:50:19;99278.69;;;1.09;81.13
75775;BME280;64505;51.458;7.556;2022-11-20T09:52:43;99278.00;;;1.15;80.29
75775;BME280;64505;51.458;7.556;2022-11-20T09:54:48;99277.31;;;1.21;80.43
75775;BME280;64505;51.458;7.556;2022-11-20T09:56:54;99269.44;;;1.29;80.72
75775;BME280;64505;51.458;7.556;2022-11-20T09:58:59;99273.47;;;1.32;79.25
75775;BME280;64505;51.458;7.556;2022-11-20T10:01:14;99271.19;;;1.37;80.69
75775;BME280;64505;51.458;7.556;2022-11-20T10:03:30;99269.19;;;1.39;80.92
75775;BME280;64505;51.458;7.556;2022-11-20T10:05:40;99268.75;;;1.35;80.21
75775;BME280;64505;51.458;7.556;2022-11-20T10:08:17;99272.31;;;1.34;79.17
75775;BME280;64505;51.458;7.556;2022-11-20T10:10:33;99271.44;;;1.42;78.95
75775;BME280;64505;51.458;7.556;2022-11-20T10:20:46;99249.91;;;1.85;78.07
75775;BME280;64505;51.458;7.556;2022-11-20T10:25:13;99245.22;;;2.10;78.94
75775;BME280;64505;51.458;7.556;2022-11-20T10:29:29;99243.72;;;2.16;79.33
75775;BME280;64505;51.458;7.556;2022-11-20T10:33:41;99245.22;;;2.39;78.03
75775;BME280;64505;51.458;7.556;2022-11-20T10:36:14;99241.91;;;2.45;76.76
75775;BME280;64505;51.458;7.556;2022-11-20T10:38:24;99242.88;;;2.59;77.01
75775;BME280;64505;51.458;7.556;2022-11-20T10:40:32;99238.00;;;2.71;77.35
75775;BME280;64505;51.458;7.556;2022-11-20T10:44:48;99235.63;;;2.76;75.36
75775;BME280;64505;51.458;7.556;2022-11-20T10:47:13;99226.69;;;2.85;76.31
75775;BME280;64505;51.458;7.556;2022-11-20T10:49:17;99236.56;;;2.89;75.27
75775;BME280;64505;51.458;7.556;2022-11-20T10:51:33;99239.50;;;3.01;75.76
75775;BME280;64505;51.458;7.556;2022-11-20T10:53:50;99231.38;;;3.11;74.30
75775;BME280;64505;51.458;7.556;2022-11-20T10:56:03;99226.66;;;3.21;74.32
75775;BME280;64505;51.458;7.556;2022-11-20T10:58:37;99227.63;;;3.20;73.11
75775;BME280;64505;51.458;7.556;2022-11-20T11:00:40;99225.72;;;3.28;72.75
75775;BME280;64505;51.458;7.556;2022-11-20T11:02:52;99226.59;;;3.35;74.00
75775;BME280;64505;51.458;7.556;2022-11-20T11:04:54;99232.41;;;3.37;73.55
75775;BME280;64505;51.458;7.556;2022-11-20T11:07:06;99231.81;;;3.35;72.59
75775;BME280;64505;51.458;7.556;2022-11-20T11:09:17;99221.91;;;3.31;72.47
75775;BME280;64505;51.458;7.556;2022-11-20T11:11:28;99219.69;;;3.28;72.15
75775;BME280;64505;51.458;7.556;2022-11-20T11:13:30;99217.69;;;3.09;71.61
75775;BME280;64505;51.458;7.556;2022-11-20T11:15:40;99220.06;;;3.25;72.36
75775;BME280;64505;51.458;7.556;2022-11-20T11:17:48;99215.00;;;3.23;71.74
75775;BME280;64505;51.458;7.556;2022-11-20T11:20:17;99217.50;;;3.31;72.32
75775;BME280;64505;51.458;7.556;2022-11-20T11:22:19;99209.38;;;3.47;71.68
75775;BME280;64505;51.458;7.556;2022-11-20T11:24:25;99207.91;;;3.38;71.95
75775;BME280;64505;51.458;7.556;2022-11-20T11:27:12;99197.50;;;3.45;72.41
75775;BME280;64505;51.458;7.556;2022-11-20T11:29:18;99190.84;;;3.42;72.26
75775;BME280;64505;51.458;7.556;2022-11-20T11:31:37;99188.53;;;3.54;73.09
75775;BME280;64505;51.458;7.556;2022-11-20T11:33:39;99188.34;;;3.56;71.93